sensor_id;sensor_type;location;lat;lon;timestamp;temperature;humidity
28189;DHT22;15471;51.166;4.470;2023-03-29T00:01:26;6.70;99.90
28189;DHT22;15471;51.166;4.470;2023-03-29T00:03:56;6.70;99.90
28189;DHT22;15471;51.166;4.470;2023-03-29T00:06:22;6.70;99.90
28189;DHT22;15471;51.166;4.470;2023-03-29T00:08:49;6.70;99.90
28189;DHT22;15471;51.166;4.470;2023-03-29T00:11:20;6.80;99.90
28189;DHT22;15471;51.166;4.470;2023-03-29T00:13:48;6.90;99.90
28189;DHT22;15471;51.166;4.470;2023-03-29T00:16:15;6.90;99.90
28189;DHT22;15471;51.166;4.470;2023-03-29T00:18:42;7.00;99.90
28189;DHT22;15471;51.166;4.470;2023-03-29T00:21:08;7.10;99.90
28189;DHT22;15471;51.166;4.470;2023-03-29T00:23:35;7.10;99.90
28189;DHT22;15471;51.166;4.470;2023-03-29T00:26:01;7.30;99.90
28189;DHT22;15471;51.166;4.470;2023-03-29T00:28:28;7.30;99.90
28189;DHT22;15471;51.166;4.470;2023-03-29T00:31:09;7.40;99.90
28189;DHT22;15471;51.166;4.470;2023-03-29T00:33:36;7.50;99.90
28189;DHT22;15471;51.166;4.470;2023-03-29T00:36:03;7.50;99.90
28189;DHT22;15471;51.166;4.470;2023-03-29T00:38:30;7.60;99.90
28189;DHT22;15471;51.166;4.470;2023-03-29T00:40:56;7.60;99.90
28189;DHT22;15471;51.166;4.470;2023-03-29T00:43:23;7.60;99.90
28189;DHT22;15471;51.166;4.470;2023-03-29T00:45:49;7.70;99.90
28189;DHT22;15471;51.166;4.470;2023-03-29T00:48:19;7.70;99.90
28189;DHT22;15471;51.166;4.470;2023-03-29T00:50:51;7.80;99.90
28189;DHT22;15471;51.166;4.470;2023-03-29T00:53:34;7.90;99.90
28189;DHT22;15471;51.166;4.470;2023-03-29T00:56:07;8.00;99.90
28189;DHT22;15471;51.166;4.470;2023-03-29T00:58:54;7.90;99.90
28189;DHT22;15471;51.166;4.470;2023-03-29T01:01:45;8.00;99.90
28189;DHT22;15471;51.166;4.470;2023-03-29T01:06:55;7.90;99.90
28189;DHT22;15471;51.166;4.470;2023-03-29T01:09:23;7.90;99.90
28189;DHT22;15471;51.166;4.470;2023-03-29T01:11:56;8.00;99.90
28189;DHT22;15471;51.166;4.470;2023-03-29T01:17:25;8.10;99.90
28189;DHT22;15471;51.166;4.470;2023-03-29T01:19:57;8.10;99.90
28189;DHT22;15471;51.166;4.470;2023-03-29T01:22:40;8.20;99.90
28189;DHT22;15471;51.166;4.470;2023-03-29T01:28:01;8.10;99.90
28189;DHT22;15471;51.166;4.470;2023-03-29T01:30:58;8.10;99.90
28189;DHT22;15471;51.166;4.470;2023-03-29T01:33:36;8.20;99.90
28189;DHT22;15471;51.166;4.470;2023-03-29T01:36:06;8.20;99.90
28189;DHT22;15471;51.166;4.470;2023-03-29T01:38:51;8.20;99.90
28189;DHT22;15471;51.166;4.470;2023-03-29T01:41:19;8.20;99.90
28189;DHT22;15471;51.166;4.470;2023-03-29T01:46:37;8.20;99.90
28189;DHT22;15471;51.166;4.470;2023-03-29T01:49:09;8.20;99.90
28189;DHT22;15471;51.166;4.470;2023-03-29T01:54:40;8.20;99.90
28189;DHT22;15471;51.166;4.470;2023-03-29T01:57:09;8.20;99.90
28189;DHT22;15471;51.166;4.470;2023-03-29T01:59:39;8.10;99.90
28189;DHT22;15471;51.166;4.470;2023-03-29T02:02:10;8.00;99.90
28189;DHT22;15471;51.166;4.470;2023-03-29T02:04:45;8.00;99.90
28189;DHT22;15471;51.166;4.470;2023-03-29T02:07:17;8.00;99.90
28189;DHT22;15471;51.166;4.470;2023-03-29T02:09:44;8.00;99.90
28189;DHT22;15471;51.166;4.470;2023-03-29T02:12:14;8.00;99.90
28189;DHT22;15471;51.166;4.470;2023-03-29T02:14:41;8.00;99.90
28189;DHT22;15471;51.166;4.470;2023-03-29T02:17:27;8.10;99.90
28189;DHT22;15471;51.166;4.470;2023-03-29T02:20:02;8.10;99.90
28189;DHT22;15471;51.166;4.470;2023-03-29T02:22:53;8.10;99.90
28189;DHT22;15471;51.166;4.470;2023-03-29T02:25:21;8.20;99.90
28189;DHT22;15471;51.166;4.470;2023-03-29T02:27:50;8.10;99.90
28189;DHT22;15471;51.166;4.470;2023-03-29T02:30:18;8.20;99.90
28189;DHT22;15471;51.166;4.470;2023-03-29T02:32:56;8.20;99.90
28189;DHT22;15471;51.166;4.470;2023-03-29T02:35:31;8.30;99.90
28189;DHT22;15471;51.166;4.470;2023-03-29T02:38:02;8.20;99.90
28189;DHT22;15471;51.166;4.470;2023-03-29T02:40:30;8.30;99.90
28189;DHT22;15471;51.166;4.470;2023-03-29T02:43:00;8.30;99.90
28189;DHT22;15471;51.166;4.470;2023-03-29T02:45:27;8.30;99.90
28189;DHT22;15471;51.166;4.470;2023-03-29T02:47:58;8.30;99.90
28189;DHT22;15471;51.166;4.470;2023-03-29T02:50:28;8.40;99.90
28189;DHT22;15471;51.166;4.470;2023-03-29T02:52:59;8.40;99.90
28189;DHT22;15471;51.166;4.470;2023-03-29T02:55:28;8.40;99.90
28189;DHT22;15471;51.166;4.470;2023-03-29T02:58:02;8.40;99.90
28189;DHT22;15471;51.166;4.470;2023-03-29T03:00:35;8.50;99.90
28189;DHT22;15471;51.166;4.470;2023-03-29T03:03:05;8.50;99.90
28189;DHT22;15471;51.166;4.470;2023-03-29T03:05:31;8.50;99.90
28189;DHT22;15471;51.166;4.470;2023-03-29T03:07:57;8.60;99.90
28189;DHT22;15471;51.166;4.470;2023-03-29T03:10:23;8.60;99.90
28189;DHT22;15471;51.166;4.470;2023-03-29T03:12:49;8.60;99.90
28189;DHT22;15471;51.166;4.470;2023-03-29T03:15:16;8.60;99.90
28189;DHT22;15471;51.166;4.470;2023-03-29T03:17:42;8.60;99.90
28189;DHT22;15471;51.166;4.470;2023-03-29T03:20:10;8.60;99.90
28189;DHT22;15471;51.166;4.470;2023-03-29T03:22:42;8.60;99.90
28189;DHT22;15471;51.166;4.470;2023-03-29T03:25:09;8.60;99.90
28189;DHT22;15471;51.166;4.470;2023-03-29T03:27:37;8.70;99.90
28189;DHT22;15471;51.166;4.470;2023-03-29T03:30:06;8.70;99.90
28189;DHT22;15471;51.166;4.470;2023-03-29T03:32:52;8.70;99.90
28189;DHT22;15471;51.166;4.470;2023-03-29T03:35:37;8.70;99.90
28189;DHT22;15471;51.166;4.470;2023-03-29T03:38:06;8.80;99.90
28189;DHT22;15471;51.166;4.470;2023-03-29T03:40:32;8.80;99.90
28189;DHT22;15471;51.166;4.470;2023-03-29T03:42:58;8.80;99.90
28189;DHT22;15471;51.166;4.470;2023-03-29T03:45:24;8.80;99.90
28189;DHT22;15471;51.166;4.470;2023-03-29T03:47:54;8.80;99.90
28189;DHT22;15471;51.166;4.470;2023-03-29T03:50:55;8.80;99.90
28189;DHT22;15471;51.166;4.470;2023-03-29T03:53:25;8.90;99.90
28189;DHT22;15471;51.166;4.470;2023-03-29T03:56:09;8.90;99.90
28189;DHT22;15471;51.166;4.470;2023-03-29T03:58:54;8.90;99.90
28189;DHT22;15471;51.166;4.470;2023-03-29T04:01:20;8.90;99.90
28189;DHT22;15471;51.166;4.470;2023-03-29T04:03:57;8.90;99.90
28189;DHT22;15471;51.166;4.470;2023-03-29T04:06:24;9.00;99.90
28189;DHT22;15471;51.166;4.470;2023-03-29T04:09:13;9.00;99.90
28189;DHT22;15471;51.166;4.470;2023-03-29T04:11:42;9.00;99.90
28189;DHT22;15471;51.166;4.470;2023-03-29T04:14:09;9.00;99.90
28189;DHT22;15471;51.166;4.470;2023-03-29T04:16:54;9.00;99.90
28189;DHT22;15471;51.166;4.470;2023-03-29T04:19:45;9.00;99.90
28189;DHT22;15471;51.166;4.470;2023-03-29T04:22:11;9.00;99.90
28189;DHT22;15471;51.166;4.470;2023-03-29T04:24:37;9.00;99.90
28189;DHT22;15471;51.166;4.470;2023-03-29T04:27:33;9.00;99.90
28189;DHT22;15471;51.166;4.470;2023-03-29T04:30:03;9.00;99.90
28189;DHT22;15471;51.166;4.470;2023-03-29T04:32:48;9.00;99.90
28189;DHT22;15471;51.166;4.470;2023-03-29T04:35:16;8.90;99.90
28189;DHT22;15471;51.166;4.470;2023-03-29T04:37:43;8.90;99.90
28189;DHT22;15471;51.166;4.470;2023-03-29T04:40:12;8.90;99.90
28189;DHT22;15471;51.166;4.470;2023-03-29T04:42:56;8.90;99.90
28189;DHT22;15471;51.166;4.470;2023-03-29T04:45:22;9.00;99.90
28189;DHT22;15471;51.166;4.470;2023-03-29T04:48:04;9.00;99.90
28189;DHT22;15471;51.166;4.470;2023-03-29T04:50:30;9.10;99.90
28189;DHT22;15471;51.166;4.470;2023-03-29T04:52:57;9.10;99.90
28189;DHT22;15471;51.166;4.470;2023-03-29T04:55:27;9.10;99.90
28189;DHT22;15471;51.166;4.470;2023-03-29T04:58:03;9.10;99.90
28189;DHT22;15471;51.166;4.470;2023-03-29T05:00:34;9.20;99.90
28189;DHT22;15471;51.166;4.470;2023-03-29T05:03:02;9.10;99.90
28189;DHT22;15471;51.166;4.470;2023-03-29T05:05:32;9.20;99.90
28189;DHT22;15471;51.166;4.470;2023-03-29T05:08:00;9.10;99.90
28189;DHT22;15471;51.166;4.470;2023-03-29T05:10:35;9.20;99.90
28189;DHT22;15471;51.166;4.470;2023-03-29T05:13:02;9.20;99.90
28189;DHT22;15471;51.166;4.470;2023-03-29T05:15:30;9.20;99.90
28189;DHT22;15471;51.166;4.470;2023-03-29T05:17:56;9.30;99.90
28189;DHT22;15471;51.166;4.470;2023-03-29T05:20:24;9.30;99.90
28189;DHT22;15471;51.166;4.470;2023-03-29T05:22:52;9.30;99.90
28189;DHT22;15471;51.166;4.470;2023-03-29T05:25:38;9.40;99.90
28189;DHT22;15471;51.166;4.470;2023-03-29T05:28:05;9.40;99.90
28189;DHT22;15471;51.166;4.470;2023-03-29T05:30:32;9.40;99.90
28189;DHT22;15471;51.166;4.470;2023-03-29T05:33:05;9.40;99.90
28189;DHT22;15471;51.166;4.470;2023-03-29T05:35:32;9.40;99.90
28189;DHT22;15471;51.166;4.470;2023-03-29T05:38:01;9.40;99.90
28189;DHT22;15471;51.166;4.470;2023-03-29T05:40:27;9.50;99.90
28189;DHT22;15471;51.166;4.470;2023-03-29T05:43:14;9.50;99.90
28189;DHT22;15471;51.166;4.470;2023-03-29T05:45:40;9.50;99.90
28189;DHT22;15471;51.166;4.470;2023-03-29T05:48:07;9.60;99.90
28189;DHT22;15471;51.166;4.470;2023-03-29T05:50:47;9.60;99.90
28189;DHT22;15471;51.166;4.470;2023-03-29T05:53:17;9.60;99.90
28189;DHT22;15471;51.166;4.470;2023-03-29T05:55:45;9.60;99.90
28189;DHT22;15471;51.166;4.470;2023-03-29T05:58:13;9.60;99.90
28189;DHT22;15471;51.166;4.470;2023-03-29T06:00:42;9.70;99.90
28189;DHT22;15471;51.166;4.470;2023-03-29T06:03:34;9.70;99.90
28189;DHT22;15471;51.166;4.470;2023-03-29T06:06:02;9.80;99.90
28189;DHT22;15471;51.166;4.470;2023-03-29T06:08:31;9.80;99.90
28189;DHT22;15471;51.166;4.470;2023-03-29T06:11:20;9.90;99.90
28189;DHT22;15471;51.166;4.470;2023-03-29T06:14:13;9.90;99.90
28189;DHT22;15471;51.166;4.470;2023-03-29T06:16:46;10.00;99.90
28189;DHT22;15471;51.166;4.470;2023-03-29T06:19:13;10.00;99.90
28189;DHT22;15471;51.166;4.470;2023-03-29T06:21:40;10.00;99.90
28189;DHT22;15471;51.166;4.470;2023-03-29T06:24:08;10.00;99.90
28189;DHT22;15471;51.166;4.470;2023-03-29T06:26:40;10.00;99.90
28189;DHT22;15471;51.166;4.470;2023-03-29T06:29:07;10.00;99.90
28189;DHT22;15471;51.166;4.470;2023-03-29T06:31:38;10.10;99.90
28189;DHT22;15471;51.166;4.470;2023-03-29T06:34:08;10.10;99.90
28189;DHT22;15471;51.166;4.470;2023-03-29T06:37:03;10.10;99.90
28189;DHT22;15471;51.166;4.470;2023-03-29T06:39:32;10.10;99.90
28189;DHT22;15471;51.166;4.470;2023-03-29T06:42:19;10.10;99.90
28189;DHT22;15471;51.166;4.470;2023-03-29T06:45:05;10.20;99.90
28189;DHT22;15471;51.166;4.470;2023-03-29T06:47:32;10.10;99.90
28189;DHT22;15471;51.166;4.470;2023-03-29T06:50:03;10.00;99.90
28189;DHT22;15471;51.166;4.470;2023-03-29T06:52:58;10.10;99.90
28189;DHT22;15471;51.166;4.470;2023-03-29T06:55:24;10.10;99.90
28189;DHT22;15471;51.166;4.470;2023-03-29T06:57:53;10.20;99.90
28189;DHT22;15471;51.166;4.470;2023-03-29T07:00:20;10.20;99.90
28189;DHT22;15471;51.166;4.470;2023-03-29T07:03:22;10.40;99.90
28189;DHT22;15471;51.166;4.470;2023-03-29T07:05:53;10.40;99.90
28189;DHT22;15471;51.166;4.470;2023-03-29T07:08:26;10.40;99.90
28189;DHT22;15471;51.166;4.470;2023-03-29T07:10:58;10.50;99.90
28189;DHT22;15471;51.166;4.470;2023-03-29T07:13:50;10.50;99.90
28189;DHT22;15471;51.166;4.470;2023-03-29T07:16:18;10.50;99.90
28189;DHT22;15471;51.166;4.470;2023-03-29T07:18:49;10.50;99.90
28189;DHT22;15471;51.166;4.470;2023-03-29T07:21:36;10.60;99.90
28189;DHT22;15471;51.166;4.470;2023-03-29T07:24:04;10.60;99.90
28189;DHT22;15471;51.166;4.470;2023-03-29T07:27:11;10.70;99.90
28189;DHT22;15471;51.166;4.470;2023-03-29T07:29:40;10.60;99.90
28189;DHT22;15471;51.166;4.470;2023-03-29T07:32:07;10.60;99.90
28189;DHT22;15471;51.166;4.470;2023-03-29T07:34:53;10.50;99.90
28189;DHT22;15471;51.166;4.470;2023-03-29T07:37:33;10.30;99.90
28189;DHT22;15471;51.166;4.470;2023-03-29T07:40:02;10.30;99.90
28189;DHT22;15471;51.166;4.470;2023-03-29T07:42:57;10.30;99.90
28189;DHT22;15471;51.166;4.470;2023-03-29T07:45:26;10.30;99.90
28189;DHT22;15471;51.166;4.470;2023-03-29T07:51:07;10.20;99.90
28189;DHT22;15471;51.166;4.470;2023-03-29T07:54:01;10.30;99.90
28189;DHT22;15471;51.166;4.470;2023-03-29T07:56:51;10.30;99.90
28189;DHT22;15471;51.166;4.470;2023-03-29T07:59:23;10.20;99.90
28189;DHT22;15471;51.166;4.470;2023-03-29T08:01:58;10.30;99.90
28189;DHT22;15471;51.166;4.470;2023-03-29T08:04:35;10.30;99.90
28189;DHT22;15471;51.166;4.470;2023-03-29T08:07:17;10.40;99.90
28189;DHT22;15471;51.166;4.470;2023-03-29T08:10:07;10.50;99.90
28189;DHT22;15471;51.166;4.470;2023-03-29T08:12:52;10.60;99.90
28189;DHT22;15471;51.166;4.470;2023-03-29T08:15:25;10.60;99.90
28189;DHT22;15471;51.166;4.470;2023-03-29T08:17:53;10.70;99.90
28189;DHT22;15471;51.166;4.470;2023-03-29T08:20:19;10.80;99.90
28189;DHT22;15471;51.166;4.470;2023-03-29T08:22:48;10.70;99.90
28189;DHT22;15471;51.166;4.470;2023-03-29T08:25:29;10.70;99.90
28189;DHT22;15471;51.166;4.470;2023-03-29T08:27:56;10.60;99.90
28189;DHT22;15471;51.166;4.470;2023-03-29T08:30:40;10.60;99.90
28189;DHT22;15471;51.166;4.470;2023-03-29T08:33:07;10.50;99.90
28189;DHT22;15471;51.166;4.470;2023-03-29T08:35:33;10.40;99.90
28189;DHT22;15471;51.166;4.470;2023-03-29T08:38:17;10.50;99.90
28189;DHT22;15471;51.166;4.470;2023-03-29T08:40:47;10.50;99.90
28189;DHT22;15471;51.166;4.470;2023-03-29T08:43:38;10.70;99.90
28189;DHT22;15471;51.166;4.470;2023-03-29T08:49:09;11.10;99.90
28189;DHT22;15471;51.166;4.470;2023-03-29T08:51:44;11.20;99.90
28189;DHT22;15471;51.166;4.470;2023-03-29T08:54:19;11.50;99.90
28189;DHT22;15471;51.166;4.470;2023-03-29T08:57:26;11.80;99.90
28189;DHT22;15471;51.166;4.470;2023-03-29T09:00:01;12.10;99.90
28189;DHT22;15471;51.166;4.470;2023-03-29T09:02:34;12.50;99.90
28189;DHT22;15471;51.166;4.470;2023-03-29T09:05:21;12.70;99.90
28189;DHT22;15471;51.166;4.470;2023-03-29T09:08:11;12.60;99.90
28189;DHT22;15471;51.166;4.470;2023-03-29T09:21:49;13.10;99.90
28189;DHT22;15471;51.166;4.470;2023-03-29T09:27:32;13.50;99.90
28189;DHT22;15471;51.166;4.470;2023-03-29T09:30:19;13.60;99.90
28189;DHT22;15471;51.166;4.470;2023-03-29T09:33:04;13.80;99.90
28189;DHT22;15471;51.166;4.470;2023-03-29T09:38:23;14.00;99.90
28189;DHT22;15471;51.166;4.470;2023-03-29T09:40:55;13.90;99.90
28189;DHT22;15471;51.166;4.470;2023-03-29T09:43:33;13.80;99.90
28189;DHT22;15471;51.166;4.470;2023-03-29T09:46:33;13.70;99.90
28189;DHT22;15471;51.166;4.470;2023-03-29T09:48:57;13.90;99.90
28189;DHT22;15471;51.166;4.470;2023-03-29T09:51:26;14.00;99.90
28189;DHT22;15471;51.166;4.470;2023-03-29T09:53:56;14.30;99.90
28189;DHT22;15471;51.166;4.470;2023-03-29T09:56:39;14.40;99.90
28189;DHT22;15471;51.166;4.470;2023-03-29T09:59:12;14.60;99.90
28189;DHT22;15471;51.166;4.470;2023-03-29T10:01:41;15.10;99.90
28189;DHT22;15471;51.166;4.470;2023-03-29T10:04:15;15.40;99.90
28189;DHT22;15471;51.166;4.470;2023-03-29T10:06:51;15.60;99.90
28189;DHT22;15471;51.166;4.470;2023-03-29T10:09:22;16.00;99.90
28189;DHT22;15471;51.166;4.470;2023-03-29T10:12:05;16.30;99.90
28189;DHT22;15471;51.166;4.470;2023-03-29T10:14:47;16.60;99.90
28189;DHT22;15471;51.166;4.470;2023-03-29T10:17:21;16.40;99.90
28189;DHT22;15471;51.166;4.470;2023-03-29T10:20:03;16.20;99.90
28189;DHT22;15471;51.166;4.470;2023-03-29T10:22:46;16.30;99.90
28189;DHT22;15471;51.166;4.470;2023-03-29T10:25:15;16.70;99.90
28189;DHT22;15471;51.166;4.470;2023-03-29T10:27:51;16.80;99.90
28189;DHT22;15471;51.166;4.470;2023-03-29T10:30:23;17.10;99.90
28189;DHT22;15471;51.166;4.470;2023-03-29T10:32:58;17.00;99.90
28189;DHT22;15471;51.166;4.470;2023-03-29T10:35:39;17.00;99.90
28189;DHT22;15471;51.166;4.470;2023-03-29T10:38:16;16.80;99.90
28189;DHT22;15471;51.166;4.470;2023-03-29T10:40:48;16.80;99.90
28189;DHT22;15471;51.166;4.470;2023-03-29T10:45:43;17.20;99.90
28189;DHT22;15471;51.166;4.470;2023-03-29T10:48:14;17.20;99.90
28189;DHT22;15471;51.166;4.470;2023-03-29T10:50:46;17.30;99.90
28189;DHT22;15471;51.166;4.470;2023-03-29T10:53:21;17.50;99.90
28189;DHT22;15471;51.166;4.470;2023-03-29T11:04:20;17.50;99.90
28189;DHT22;15471;51.166;4.470;2023-03-29T11:07:17;17.50;99.90
28189;DHT22;15471;51.166;4.470;2023-03-29T11:10:04;17.90;99.90
28189;DHT22;15471;51.166;4.470;2023-03-29T11:21:37;17.50;99.90
28189;DHT22;15471;51.166;4.470;2023-03-29T11:27:16;17.50;99.90
28189;DHT22;15471;51.166;4.470;2023-03-29T11:30:12;17.50;99.90
28189;DHT22;15471;51.166;4.470;2023-03-29T11:32:47;17.70;99.90
28189;DHT22;15471;51.166;4.470;2023-03-29T11:38:22;17.80;99.90
28189;DHT22;15471;51.166;4.470;2023-03-29T11:40:58;17.40;99.90
28189;DHT22;15471;51.166;4.470;2023-03-29T11:43:32;17.20;99.90
28189;DHT22;15471;51.166;4.470;2023-03-29T11:46:28;17.20;99.90
28189;DHT22;15471;51.166;4.470;2023-03-29T11:49:28;17.40;99.90
28189;DHT22;15471;51.166;4.470;2023-03-29T11:54:42;17.70;99.90
28189;DHT22;15471;51.166;4.470;2023-03-29T12:00:43;18.10;99.90
28189;DHT22;15471;51.166;4.470;2023-03-29T12:03:29;18.20;99.90
28189;DHT22;15471;51.166;4.470;2023-03-29T12:06:11;18.30;99.90
28189;DHT22;15471;51.166;4.470;2023-03-29T12:08:50;18.20;99.90
28189;DHT22;15471;51.166;4.470;2023-03-29T12:14:05;18.00;99.90
28189;DHT22;15471;51.166;4.470;2023-03-29T12:16:51;18.20;99.90
28189;DHT22;15471;51.166;4.470;2023-03-29T12:21:45;18.30;99.90
28189;DHT22;15471;51.166;4.470;2023-03-29T12:24:15;18.60;99.90
28189;DHT22;15471;51.166;4.470;2023-03-29T12:27:12;18.80;99.90
28189;DHT22;15471;51.166;4.470;2023-03-29T12:33:32;19.00;99.90
28189;DHT22;15471;51.166;4.470;2023-03-29T12:39:43;18.40;99.90
28189;DHT22;15471;51.166;4.470;2023-03-29T12:42:30;18.40;99.90
28189;DHT22;15471;51.166;4.470;2023-03-29T12:45:36;18.30;99.90
28189;DHT22;15471;51.166;4.470;2023-03-29T12:48:04;18.30;99.90
28189;DHT22;15471;51.166;4.470;2023-03-29T12:50:47;18.30;99.90
28189;DHT22;15471;51.166;4.470;2023-03-29T12:53:26;18.40;99.90
28189;DHT22;15471;51.166;4.470;2023-03-29T12:56:08;18.40;99.90
28189;DHT22;15471;51.166;4.470;2023-03-29T13:01:09;18.30;99.90
28189;DHT22;15471;51.166;4.470;2023-03-29T13:06:30;18.40;99.90
28189;DHT22;15471;51.166;4.470;2023-03-29T13:09:02;18.50;99.90
28189;DHT22;15471;51.166;4.470;2023-03-29T13:11:37;18.70;99.90
28189;DHT22;15471;51.166;4.470;2023-03-29T13:14:15;18.90;99.90
28189;DHT22;15471;51.166;4.470;2023-03-29T13:16:50;19.20;99.90
28189;DHT22;15471;51.166;4.470;2023-03-29T13:22:17;19.00;99.90
28189;DHT22;15471;51.166;4.470;2023-03-29T13:24:58;19.00;99.90
28189;DHT22;15471;51.166;4.470;2023-03-29T13:39:20;19.40;99.90
28189;DHT22;15471;51.166;4.470;2023-03-29T13:41:51;19.20;99.90
28189;DHT22;15471;51.166;4.470;2023-03-29T13:47:26;18.80;99.90
28189;DHT22;15471;51.166;4.470;2023-03-29T13:49:59;18.60;99.90
28189;DHT22;15471;51.166;4.470;2023-03-29T13:52:31;18.70;99.90
28189;DHT22;15471;51.166;4.470;2023-03-29T13:55:23;19.00;99.90
28189;DHT22;15471;51.166;4.470;2023-03-29T13:58:42;19.00;99.90
28189;DHT22;15471;51.166;4.470;2023-03-29T14:04:16;18.70;99.90
28189;DHT22;15471;51.166;4.470;2023-03-29T14:06:50;18.90;99.90
28189;DHT22;15471;51.166;4.470;2023-03-29T14:09:19;18.90;99.90
28189;DHT22;15471;51.166;4.470;2023-03-29T14:11:47;18.90;99.90
28189;DHT22;15471;51.166;4.470;2023-03-29T14:14:13;18.70;99.90
28189;DHT22;15471;51.166;4.470;2023-03-29T14:16:41;18.50;99.90
28189;DHT22;15471;51.166;4.470;2023-03-29T14:19:17;18.50;99.90
28189;DHT22;15471;51.166;4.470;2023-03-29T14:21:44;18.50;99.90
28189;DHT22;15471;51.166;4.470;2023-03-29T14:24:15;18.60;99.90
28189;DHT22;15471;51.166;4.470;2023-03-29T14:26:44;18.70;99.90
28189;DHT22;15471;51.166;4.470;2023-03-29T14:29:11;18.70;99.90
28189;DHT22;15471;51.166;4.470;2023-03-29T14:31:39;18.70;99.90
28189;DHT22;15471;51.166;4.470;2023-03-29T14:34:13;18.60;99.90
28189;DHT22;15471;51.166;4.470;2023-03-29T14:36:41;18.80;99.90
28189;DHT22;15471;51.166;4.470;2023-03-29T14:39:16;18.60;99.90
28189;DHT22;15471;51.166;4.470;2023-03-29T14:41:50;18.60;99.90
28189;DHT22;15471;51.166;4.470;2023-03-29T14:44:17;18.60;99.90
28189;DHT22;15471;51.166;4.470;2023-03-29T14:46:45;18.70;99.90
28189;DHT22;15471;51.166;4.470;2023-03-29T14:49:18;18.60;99.90
28189;DHT22;15471;51.166;4.470;2023-03-29T14:51:46;18.60;99.90
28189;DHT22;15471;51.166;4.470;2023-03-29T14:54:21;18.50;99.90
28189;DHT22;15471;51.166;4.470;2023-03-29T14:56:50;18.40;99.90
28189;DHT22;15471;51.166;4.470;2023-03-29T14:59:28;18.30;99.90
28189;DHT22;15471;51.166;4.470;2023-03-29T15:01:57;18.40;99.90
28189;DHT22;15471;51.166;4.470;2023-03-29T15:04:33;18.40;99.90
28189;DHT22;15471;51.166;4.470;2023-03-29T15:07:01;18.60;99.90
28189;DHT22;15471;51.166;4.470;2023-03-29T15:09:33;18.60;99.90
28189;DHT22;15471;51.166;4.470;2023-03-29T15:12:02;18.80;99.90
28189;DHT22;15471;51.166;4.470;2023-03-29T15:14:33;18.80;99.90
28189;DHT22;15471;51.166;4.470;2023-03-29T15:17:30;18.70;99.90
28189;DHT22;15471;51.166;4.470;2023-03-29T15:20:04;18.90;99.90
28189;DHT22;15471;51.166;4.470;2023-03-29T15:23:33;19.00;99.90
28189;DHT22;15471;51.166;4.470;2023-03-29T15:30:16;19.00;99.90
28189;DHT22;15471;51.166;4.470;2023-03-29T15:36:11;19.00;99.90
28189;DHT22;15471;51.166;4.470;2023-03-29T15:38:39;19.00;99.90
28189;DHT22;15471;51.166;4.470;2023-03-29T15:41:06;18.80;99.90
28189;DHT22;15471;51.166;4.470;2023-03-29T15:43:33;18.90;99.90
28189;DHT22;15471;51.166;4.470;2023-03-29T15:57:10;18.70;99.90
28189;DHT22;15471;51.166;4.470;2023-03-29T15:59:38;18.60;99.90
28189;DHT22;15471;51.166;4.470;2023-03-29T16:02:04;18.50;99.90
28189;DHT22;15471;51.166;4.470;2023-03-29T16:04:32;18.40;99.90
28189;DHT22;15471;51.166;4.470;2023-03-29T16:06:58;18.40;99.90
28189;DHT22;15471;51.166;4.470;2023-03-29T16:09:25;18.40;99.90
28189;DHT22;15471;51.166;4.470;2023-03-29T16:11:52;18.30;99.90
28189;DHT22;15471;51.166;4.470;2023-03-29T16:16:48;18.40;99.90
28189;DHT22;15471;51.166;4.470;2023-03-29T16:19:14;18.30;99.90
28189;DHT22;15471;51.166;4.470;2023-03-29T16:25:01;18.40;99.90
28189;DHT22;15471;51.166;4.470;2023-03-29T16:27:31;18.40;99.90
28189;DHT22;15471;51.166;4.470;2023-03-29T16:30:14;18.30;99.90
28189;DHT22;15471;51.166;4.470;2023-03-29T16:32:54;18.30;99.90
28189;DHT22;15471;51.166;4.470;2023-03-29T16:35:46;18.30;99.90
28189;DHT22;15471;51.166;4.470;2023-03-29T16:38:23;18.00;99.90
28189;DHT22;15471;51.166;4.470;2023-03-29T16:40:54;17.80;99.90
28189;DHT22;15471;51.166;4.470;2023-03-29T16:43:21;17.80;99.90
28189;DHT22;15471;51.166;4.470;2023-03-29T16:46:00;17.80;99.90
28189;DHT22;15471;51.166;4.470;2023-03-29T16:48:51;17.80;99.90
28189;DHT22;15471;51.166;4.470;2023-03-29T16:51:19;17.80;99.90
28189;DHT22;15471;51.166;4.470;2023-03-29T16:53:54;17.90;99.90
28189;DHT22;15471;51.166;4.470;2023-03-29T16:56:21;17.80;99.90
28189;DHT22;15471;51.166;4.470;2023-03-29T16:58:48;17.80;99.90
28189;DHT22;15471;51.166;4.470;2023-03-29T17:01:15;17.80;99.90
28189;DHT22;15471;51.166;4.470;2023-03-29T17:03:43;17.70;99.90
28189;DHT22;15471;51.166;4.470;2023-03-29T17:06:10;17.70;99.90
28189;DHT22;15471;51.166;4.470;2023-03-29T17:08:38;17.70;99.90
28189;DHT22;15471;51.166;4.470;2023-03-29T17:11:06;17.70;99.90
28189;DHT22;15471;51.166;4.470;2023-03-29T17:13:32;17.60;99.90
28189;DHT22;15471;51.166;4.470;2023-03-29T17:15:59;17.60;99.90
28189;DHT22;15471;51.166;4.470;2023-03-29T17:18:26;17.50;99.90
28189;DHT22;15471;51.166;4.470;2023-03-29T17:20:57;17.50;99.90
28189;DHT22;15471;51.166;4.470;2023-03-29T17:23:24;17.40;99.90
28189;DHT22;15471;51.166;4.470;2023-03-29T17:25:53;17.30;99.90
28189;DHT22;15471;51.166;4.470;2023-03-29T17:28:19;17.10;99.90
28189;DHT22;15471;51.166;4.470;2023-03-29T17:30:45;17.10;99.90
28189;DHT22;15471;51.166;4.470;2023-03-29T17:33:12;17.10;99.90
28189;DHT22;15471;51.166;4.470;2023-03-29T17:35:44;17.00;99.90
28189;DHT22;15471;51.166;4.470;2023-03-29T17:38:11;17.00;99.90
28189;DHT22;15471;51.166;4.470;2023-03-29T17:40:37;16.90;99.90
28189;DHT22;15471;51.166;4.470;2023-03-29T17:43:03;16.70;99.90
28189;DHT22;15471;51.166;4.470;2023-03-29T17:45:29;16.60;99.90
28189;DHT22;15471;51.166;4.470;2023-03-29T17:47:57;16.60;99.90
28189;DHT22;15471;51.166;4.470;2023-03-29T17:50:23;16.60;99.90
28189;DHT22;15471;51.166;4.470;2023-03-29T17:52:49;16.50;99.90
28189;DHT22;15471;51.166;4.470;2023-03-29T17:55:15;16.50;99.90
28189;DHT22;15471;51.166;4.470;2023-03-29T17:57:41;16.40;99.90
28189;DHT22;15471;51.166;4.470;2023-03-29T18:00:11;16.40;99.90
28189;DHT22;15471;51.166;4.470;2023-03-29T18:02:38;16.20;99.90
28189;DHT22;15471;51.166;4.470;2023-03-29T18:05:06;16.30;99.90
28189;DHT22;15471;51.166;4.470;2023-03-29T18:07:33;16.20;99.90
28189;DHT22;15471;51.166;4.470;2023-03-29T18:09:59;16.10;99.90
28189;DHT22;15471;51.166;4.470;2023-03-29T18:12:25;16.10;99.90
28189;DHT22;15471;51.166;4.470;2023-03-29T18:14:51;16.10;99.90
28189;DHT22;15471;51.166;4.470;2023-03-29T18:17:17;16.00;99.90
28189;DHT22;15471;51.166;4.470;2023-03-29T18:19:44;16.00;99.90
28189;DHT22;15471;51.166;4.470;2023-03-29T18:22:11;15.90;99.90
28189;DHT22;15471;51.166;4.470;2023-03-29T18:24:39;15.90;99.90
28189;DHT22;15471;51.166;4.470;2023-03-29T18:27:05;15.80;99.90
28189;DHT22;15471;51.166;4.470;2023-03-29T18:29:32;15.80;99.90
28189;DHT22;15471;51.166;4.470;2023-03-29T18:32:01;15.80;99.90